Time;durP1;ratioP1;P1;durP2;ratioP2;P2;SDS_P1;SDS_P2;PMS_P1;PMS_P2;Temp;Humidity;BMP_temperature;BMP_pressure;BME280_temperature;BME280_humidity;BME280_pressure;Samples;Min_cycle;Max_cycle;Signal;HPM_P1;HPM_P2
2022/11/13 00:09:12;;;;;;;55.40;25.70;;;;;;;6.24;100.00;101488.09;20999589;28;20045;-78
2022/11/13 00:19:13;;;;;;;40.72;20.63;;;;;;;6.12;100.00;101485.25;21007739;28;20102;-79
2022/11/13 00:29:17;;;;;;;35.00;20.03;;;;;;;6.19;100.00;101471.53;21011538;28;20052;-79
2022/11/13 00:39:18;;;;;;;30.10;17.48;;;;;;;6.24;100.00;101469.91;21010737;28;20425;-79
2022/11/13 00:49:26;;;;;;;40.40;21.75;;;;;;;6.32;100.00;101451.81;21016021;28;20056;-79
2022/11/13 00:59:27;;;;;;;34.88;18.73;;;;;;;6.25;100.00;101436.97;21013729;28;20052;-79
2022/11/13 01:09:28;;;;;;;34.88;19.40;;;;;;;6.23;100.00;101431.75;21006905;28;20044;-78
2022/11/13 01:19:30;;;;;;;33.88;19.52;;;;;;;6.16;100.00;101435.06;21002214;28;20047;-78
2022/11/13 01:29:31;;;;;;;30.33;18.50;;;;;;;6.11;100.00;101426.28;20999326;28;20462;-78
2022/11/13 01:39:33;;;;;;;36.00;20.67;;;;;;;6.16;100.00;101424.66;21013663;28;20086;-79
2022/11/13 01:49:35;;;;;;;39.67;20.88;;;;;;;6.13;100.00;101409.00;21017380;28;20053;-78
2022/11/13 01:59:37;;;;;;;36.50;19.73;;;;;;;5.99;100.00;101400.06;21008205;28;20139;-78
2022/11/13 02:09:38;;;;;;;32.08;18.85;;;;;;;5.84;100.00;101390.22;21006300;28;20408;-78
2022/11/13 02:19:40;;;;;;;30.13;17.80;;;;;;;5.89;100.00;101376.47;21010939;28;20056;-78
2022/11/13 02:29:44;;;;;;;29.47;17.20;;;;;;;6.00;100.00;101381.03;21007751;28;20044;-78
2022/11/13 02:39:45;;;;;;;30.90;17.75;;;;;;;6.10;100.00;101362.16;21005858;28;20352;-78
2022/11/13 02:49:47;;;;;;;32.05;18.33;;;;;;;6.16;100.00;101352.72;21014144;28;20151;-78
2022/11/13 02:59:48;;;;;;;29.75;16.70;;;;;;;6.03;100.00;101349.88;21017270;28;20430;-78
2022/11/13 03:09:49;;;;;;;32.33;16.48;;;;;;;5.89;100.00;101353.09;21012602;28;20044;-78
2022/11/13 03:19:50;;;;;;;36.40;17.33;;;;;;;6.02;100.00;101342.94;21003548;28;20048;-77
2022/11/13 03:29:52;;;;;;;29.52;16.42;;;;;;;5.88;100.00;101330.53;20995431;28;20062;-78
2022/11/13 03:39:53;;;;;;;29.08;16.40;;;;;;;5.85;100.00;101322.69;21001270;28;20127;-78
2022/11/13 03:49:54;;;;;;;37.95;19.98;;;;;;;5.87;100.00;101312.31;21010904;28;20044;-78
2022/11/13 03:59:55;;;;;;;65.82;25.52;;;;;;;5.83;100.00;101320.88;21010338;28;20074;-78
2022/11/13 04:09:57;;;;;;;69.15;27.55;;;;;;;5.88;100.00;101314.06;21009289;28;20109;-78
2022/11/13 04:19:58;;;;;;;76.97;29.35;;;;;;;5.70;100.00;101298.13;21015965;28;20044;-77
2022/11/13 04:29:59;;;;;;;84.35;31.23;;;;;;;5.70;100.00;101300.72;21004800;28;20114;-78
2022/11/13 04:40:01;;;;;;;92.97;32.63;;;;;;;5.64;100.00;101286.78;20999857;28;20412;-78
2022/11/13 04:50:02;;;;;;;88.78;32.47;;;;;;;5.63;100.00;101291.94;21003671;28;20045;-78
2022/11/13 05:00:03;;;;;;;98.10;31.70;;;;;;;5.35;100.00;101286.22;20999103;28;20049;-79
2022/11/13 05:10:05;;;;;;;96.75;29.75;;;;;;;5.15;100.00;101272.84;20991873;28;20071;-78
2022/11/13 05:20:06;;;;;;;69.80;26.85;;;;;;;5.12;100.00;101274.50;20991830;28;20056;-77
2022/11/13 05:30:07;;;;;;;74.25;27.30;;;;;;;4.91;100.00;101253.28;20989419;28;20048;-78
2022/11/13 05:40:08;;;;;;;82.20;25.45;;;;;;;4.72;100.00;101237.34;20993253;28;20049;-78
2022/11/13 05:50:10;;;;;;;75.75;27.40;;;;;;;4.75;100.00;101234.81;20989016;28;20067;-78
2022/11/13 06:00:11;;;;;;;69.38;25.42;;;;;;;4.73;100.00;101236.47;20993755;28;20052;-78
2022/11/13 06:10:12;;;;;;;64.50;26.67;;;;;;;4.87;100.00;101229.88;20996513;28;20044;-78
2022/11/13 06:20:14;;;;;;;76.85;25.25;;;;;;;4.67;100.00;101214.75;20993595;28;20048;-78
2022/11/13 06:30:15;;;;;;;94.45;23.33;;;;;;;4.49;100.00;101208.28;21006076;28;20553;-78
2022/11/13 06:40:16;;;;;;;74.30;22.85;;;;;;;4.57;100.00;101204.16;21008080;28;20044;-79
2022/11/13 06:50:19;;;;;;;80.68;20.90;;;;;;;4.30;100.00;101203.53;21013830;28;20040;-79
2022/11/13 07:00:20;;;;;;;60.08;21.98;;;;;;;4.35;100.00;101201.94;21005208;28;20105;-78
2022/11/13 07:10:21;;;;;;;80.80;23.17;;;;;;;4.32;100.00;101202.75;21012110;28;20048;-77
2022/11/13 07:20:23;;;;;;;71.82;25.10;;;;;;;4.41;100.00;101201.19;21003758;28;20048;-78
2022/11/13 07:30:24;;;;;;;76.63;25.70;;;;;;;4.45;100.00;101182.25;21002309;28;20049;-78
2022/11/13 07:40:25;;;;;;;83.13;24.73;;;;;;;4.30;100.00;101188.00;21002587;28;20048;-78
2022/11/13 07:50:27;;;;;;;64.75;25.08;;;;;;;4.49;100.00;101163.34;21001947;28;20053;-78
2022/11/13 08:00:28;;;;;;;73.35;25.35;;;;;;;4.57;100.00;101154.88;21000081;28;20459;-78
2022/11/13 08:10:30;;;;;;;65.45;25.20;;;;;;;4.67;100.00;101155.06;20998087;28;20112;-78
2022/11/13 08:20:31;;;;;;;72.28;25.92;;;;;;;4.73;100.00;101158.66;20985802;28;20047;-79
2022/11/13 08:30:32;;;;;;;61.30;26.15;;;;;;;5.00;100.00;101165.25;20991565;28;20044;-78
2022/11/13 08:40:33;;;;;;;65.60;24.90;;;;;;;4.95;100.00;101138.34;20965691;23;20049;-69
2022/11/13 08:50:35;;;;;;;44.70;22.25;;;;;;;5.11;100.00;101129.97;20887176;28;20049;-71
2022/11/13 09:00:36;;;;;;;42.92;21.25;;;;;;;5.51;100.00;101135.84;20989418;28;20433;-70
2022/11/13 09:10:37;;;;;;;53.13;24.90;;;;;;;5.88;100.00;101117.41;20915735;28;20053;-69
2022/11/13 09:20:39;;;;;;;53.72;24.50;;;;;;;5.61;100.00;101101.41;20818114;28;20107;-71
2022/11/13 09:30:40;;;;;;;55.80;25.00;;;;;;;5.59;100.00;101090.09;20817400;28;20041;-70
2022/11/13 09:40:42;;;;;;;48.17;22.55;;;;;;;5.65;100.00;101087.59;20845363;28;20400;-71
2022/11/13 09:50:43;;;;;;;49.20;25.38;;;;;;;5.74;100.00;101085.13;20897303;28;20063;-69
2022/11/13 10:00:44;;;;;;;44.20;23.02;;;;;;;5.78;100.00;101083.47;20913585;28;20140;-70
2022/11/13 10:10:45;;;;;;;43.92;21.20;;;;;;;6.03;100.00;101076.91;20914839;28;20063;-68
2022/11/13 10:20:56;;;;;;;38.85;20.42;;;;;;;5.86;100.00;101048.06;20913342;28;20049;-69
2022/11/13 10:30:58;;;;;;;38.53;19.67;;;;;;;5.70;100.00;101034.00;20912782;28;20040;-69
2022/11/13 10:40:59;;;;;;;36.63;19.13;;;;;;;6.20;100.00;101020.81;20912505;28;20099;-69
2022/11/13 10:51:00;;;;;;;40.42;21.67;;;;;;;6.52;100.00;100999.53;20910944;28;20053;-68
2022/11/13 11:01:01;;;;;;;36.45;19.75;;;;;;;6.28;100.00;100993.19;20968839;28;20094;-68
2022/11/13 11:21:23;;;;;;;33.75;18.80;;;;;;;6.70;100.00;100965.84;20992223;28;20040;-68
2022/11/13 11:31:25;;;;;;;34.05;19.85;;;;;;;6.69;100.00;100951.09;20991048;28;20538;-68
2022/11/13 11:41:26;;;;;;;36.50;20.27;;;;;;;7.00;100.00;100948.78;20952049;28;20519;-69
2022/11/13 11:51:28;;;;;;;34.40;19.33;;;;;;;7.39;100.00;100911.69;20921909;28;20041;-69
2022/11/13 12:01:29;;;;;;;32.97;18.85;;;;;;;7.87;100.00;100869.31;20987747;28;20078;-69
2022/11/13 12:11:30;;;;;;;30.63;17.92;;;;;;;8.06;100.00;100853.72;20987798;28;20050;-68
2022/11/13 12:21:32;;;;;;;28.95;16.75;;;;;;;8.38;100.00;100830.28;20986232;28;20295;-69
2022/11/13 12:31:37;;;;;;;22.85;13.38;;;;;;;8.88;100.00;100804.16;20985135;28;20044;-69
2022/11/13 12:41:39;;;;;;;22.80;13.20;;;;;;;9.21;100.00;100782.28;20950654;28;20596;-68
2022/11/13 12:51:40;;;;;;;19.58;12.15;;;;;;;9.50;100.00;100781.28;20969535;22;20048;-76
2022/11/13 13:01:41;;;;;;;22.90;13.23;;;;;;;9.53;100.00;100749.88;21066913;28;20048;-74
2022/11/13 13:11:43;;;;;;;20.00;12.00;;;;;;;9.75;100.00;100727.94;21067307;28;20078;-74
2022/11/13 13:21:44;;;;;;;17.33;10.18;;;;;;;9.92;100.00;100714.75;21067552;28;20472;-75
2022/11/13 13:31:46;;;;;;;15.85;9.82;;;;;;;10.15;100.00;100680.53;21065141;28;20048;-75
2022/11/13 13:41:47;;;;;;;19.85;10.68;;;;;;;10.39;100.00;100668.97;21029242;28;20048;-75
2022/11/13 13:51:48;;;;;;;17.05;9.85;;;;;;;10.58;100.00;100660.91;20981995;28;20561;-74
2022/11/13 14:01:49;;;;;;;16.48;10.23;;;;;;;10.73;100.00;100645.03;20981103;28;20037;-75
2022/11/13 14:11:51;;;;;;;21.27;11.88;;;;;;;10.53;100.00;100642.66;20981637;28;20059;-75
2022/11/13 14:21:52;;;;;;;19.95;11.73;;;;;;;10.42;100.00;100637.53;20980697;28;20048;-75
2022/11/13 14:31:53;;;;;;;18.30;11.80;;;;;;;10.31;100.00;100615.88;20979691;28;20500;-75
2022/11/13 14:41:54;;;;;;;21.80;11.02;;;;;;;10.20;100.00;100612.44;20945777;28;20099;-76
2022/11/13 14:51:56;;;;;;;19.10;12.40;;;;;;;10.02;100.00;100617.00;20911527;28;20061;-77
2022/11/13 15:01:57;;;;;;;18.95;11.25;;;;;;;9.80;100.00;100596.31;20910855;28;20045;-75
2022/11/13 15:11:58;;;;;;;22.02;13.55;;;;;;;9.55;100.00;100611.34;20909007;28;20357;-75
2022/11/13 15:22:00;;;;;;;31.48;19.08;;;;;;;9.38;100.00;100614.94;20909230;28;20452;-76
2022/11/13 15:32:22;;;;;;;23.83;13.55;;;;;;;8.89;100.00;100604.81;20908558;28;20468;-75
2022/11/13 15:42:23;;;;;;;23.60;13.75;;;;;;;8.25;100.00;100607.69;20949049;28;20068;-76
2022/11/13 15:52:25;;;;;;;26.10;15.65;;;;;;;7.88;100.00;100610.34;20990662;28;20492;-75
2022/11/13 16:02:26;;;;;;;22.83;12.13;;;;;;;7.60;100.00;100603.41;20987309;28;20118;-74
2022/11/13 16:12:27;;;;;;;33.83;19.80;;;;;;;7.24;100.00;100605.16;20987633;28;20048;-76
2022/11/13 16:22:29;;;;;;;31.77;17.20;;;;;;;7.01;100.00;100617.28;20986271;28;20408;-75
2022/11/13 16:32:30;;;;;;;35.08;18.88;;;;;;;6.80;100.00;100611.13;20986084;28;20052;-76
2022/11/13 16:42:31;;;;;;;35.47;20.25;;;;;;;6.59;100.00;100603.25;20943646;28;20105;-75
2022/11/13 16:52:33;;;;;;;36.40;19.80;;;;;;;6.37;100.00;100592.78;20902455;28;20111;-76
2022/11/13 17:02:34;;;;;;;36.10;19.98;;;;;;;6.19;100.00;100594.41;20906717;28;20056;-75
2022/11/13 17:12:35;;;;;;;35.80;19.70;;;;;;;6.06;100.00;100585.66;20933274;28;20393;-75
2022/11/13 17:22:37;;;;;;;40.20;21.48;;;;;;;5.91;100.00;100579.53;20939280;28;20110;-76
2022/11/13 17:32:38;;;;;;;51.05;28.20;;;;;;;5.74;100.00;100583.69;20891206;28;20059;-76
2022/11/13 17:42:39;;;;;;;59.13;31.60;;;;;;;5.70;100.00;100571.56;20907472;28;20049;-75
2022/11/13 17:52:40;;;;;;;48.55;26.40;;;;;;;5.66;100.00;100588.84;20892351;28;20654;-76
2022/11/13 18:02:42;;;;;;;38.55;20.23;;;;;;;5.53;100.00;100596.53;20890294;28;20052;-75
2022/11/13 18:12:43;;;;;;;42.72;21.45;;;;;;;5.34;100.00;100582.53;20916216;28;20450;-76
2022/11/13 18:22:44;;;;;;;44.78;22.38;;;;;;;5.36;100.00;100576.47;20986434;28;20118;-75
2022/11/13 18:32:46;;;;;;;48.78;22.92;;;;;;;5.39;100.00;100581.72;20989171;28;20535;-75
2022/11/13 18:42:47;;;;;;;59.10;23.67;;;;;;;5.53;100.00;100583.56;20975822;28;20428;-75
2022/11/13 18:52:48;;;;;;;41.90;21.98;;;;;;;5.65;100.00;100576.72;20980378;28;20063;-75
2022/11/13 19:02:50;;;;;;;42.38;23.85;;;;;;;5.67;100.00;100581.94;20982908;28;20122;-75
2022/11/13 19:12:51;;;;;;;41.53;24.33;;;;;;;5.80;100.00;100570.78;20954758;28;20053;-75
2022/11/13 19:22:53;;;;;;;57.13;28.17;;;;;;;5.85;100.00;100561.28;20967051;28;20060;-75
2022/11/13 19:32:54;;;;;;;49.65;25.00;;;;;;;5.82;100.00;100561.25;20957704;28;20045;-75
2022/11/13 19:42:55;;;;;;;52.50;26.83;;;;;;;5.85;100.00;100543.09;20933685;28;20472;-77
2022/11/13 19:52:56;;;;;;;53.63;28.73;;;;;;;5.81;100.00;100535.25;20896798;28;20060;-77
2022/11/13 20:02:58;;;;;;;54.28;27.10;;;;;;;5.86;100.00;100530.97;20896015;28;20055;-77
2022/11/13 20:13:05;;;;;;;50.28;25.30;;;;;;;6.02;100.00;100552.72;20925451;28;20056;-77
2022/11/13 20:23:06;;;;;;;50.92;25.63;;;;;;;5.95;100.00;100546.63;20894296;28;20052;-76
2022/11/13 20:33:07;;;;;;;49.78;24.65;;;;;;;6.04;100.00;100551.03;20891363;28;20559;-77
2022/11/13 20:43:09;;;;;;;51.90;26.02;;;;;;;6.09;100.00;100538.91;20937725;28;20102;-76
2022/11/13 20:53:10;;;;;;;49.53;25.13;;;;;;;6.04;100.00;100543.22;20974158;28;20117;-76
2022/11/13 21:03:11;;;;;;;46.85;22.58;;;;;;;6.14;100.00;100539.81;20973373;28;20052;-76
2022/11/13 21:13:12;;;;;;;48.28;23.55;;;;;;;6.23;100.00;100545.03;20943887;28;20060;-76
2022/11/13 21:23:14;;;;;;;45.35;23.23;;;;;;;6.33;100.00;100533.81;20891977;28;20428;-76
2022/11/13 21:33:15;;;;;;;46.35;23.60;;;;;;;6.33;100.00;100532.94;20889906;28;20053;-76
2022/11/13 21:43:16;;;;;;;43.15;21.48;;;;;;;6.43;100.00;100519.97;20937225;28;20052;-77
2022/11/13 21:53:18;;;;;;;42.60;21.40;;;;;;;6.49;100.00;100515.66;20979649;28;20133;-77
2022/11/13 22:03:19;;;;;;;51.05;23.40;;;;;;;6.50;100.00;100492.22;20989185;28;20052;-76
2022/11/13 22:13:20;;;;;;;44.13;22.95;;;;;;;6.45;100.00;100472.28;20986003;28;20057;-73
2022/11/13 22:23:21;;;;;;;46.35;21.35;;;;;;;6.45;100.00;100461.88;20988061;28;20064;-74
2022/11/13 22:33:23;;;;;;;42.20;21.27;;;;;;;6.40;100.00;100461.88;20987372;28;20090;-77
2022/11/13 22:43:24;;;;;;;45.85;22.17;;;;;;;6.46;100.00;100461.88;20986636;28;20052;-77
2022/11/13 22:53:25;;;;;;;48.20;22.42;;;;;;;6.50;100.00;100453.22;20985666;28;20106;-74
2022/11/13 23:03:27;;;;;;;43.90;22.15;;;;;;;6.53;100.00;100441.97;20985883;28;20049;-75
2022/11/13 23:13:28;;;;;;;40.25;20.58;;;;;;;6.43;100.00;100441.94;20992052;28;20048;-75
2022/11/13 23:23:29;;;;;;;42.30;20.73;;;;;;;6.46;100.00;100430.66;20992165;28;20057;-75
2022/11/13 23:33:30;;;;;;;40.38;20.00;;;;;;;6.58;100.00;100424.63;20990920;28;20045;-75
2022/11/13 23:43:32;;;;;;;37.53;20.92;;;;;;;6.61;100.00;100403.78;20940067;28;20049;-74
2022/11/13 23:53:53;;;;;;;33.22;17.70;;;;;;;6.65;100.00;100432.41;20906679;28;20081;-76
